sensor_id;sensor_type;location;lat;lon;timestamp;P1;durP1;ratioP1;P2;durP2;ratioP2
74510;SDS011;62991;50.040;18.400;2023-06-14T00:02:22;7.53;;;3.28;;
74510;SDS011;62991;50.040;18.400;2023-06-14T00:08:43;5.22;;;3.30;;
74510;SDS011;62991;50.040;18.400;2023-06-14T00:11:44;6.57;;;3.78;;
74510;SDS011;62991;50.040;18.400;2023-06-14T00:14:45;6.93;;;4.20;;
74510;SDS011;62991;50.040;18.400;2023-06-14T00:17:45;10.45;;;4.43;;
74510;SDS011;62991;50.040;18.400;2023-06-14T00:20:47;9.82;;;4.15;;
74510;SDS011;62991;50.040;18.400;2023-06-14T00:23:48;8.10;;;3.95;;
74510;SDS011;62991;50.040;18.400;2023-06-14T00:26:48;6.63;;;3.58;;
74510;SDS011;62991;50.040;18.400;2023-06-14T00:29:49;7.50;;;3.58;;
74510;SDS011;62991;50.040;18.400;2023-06-14T00:32:50;8.25;;;3.67;;
74510;SDS011;62991;50.040;18.400;2023-06-14T00:35:51;8.48;;;4.43;;
74510;SDS011;62991;50.040;18.400;2023-06-14T00:38:53;9.30;;;3.70;;
74510;SDS011;62991;50.040;18.400;2023-06-14T00:41:54;5.95;;;3.13;;
74510;SDS011;62991;50.040;18.400;2023-06-14T00:44:55;6.60;;;2.72;;
74510;SDS011;62991;50.040;18.400;2023-06-14T00:47:56;6.00;;;3.13;;
74510;SDS011;62991;50.040;18.400;2023-06-14T00:50:57;9.00;;;4.00;;
74510;SDS011;62991;50.040;18.400;2023-06-14T00:53:58;9.32;;;3.95;;
74510;SDS011;62991;50.040;18.400;2023-06-14T00:56:59;5.68;;;2.92;;
74510;SDS011;62991;50.040;18.400;2023-06-14T01:00:00;10.02;;;3.75;;
74510;SDS011;62991;50.040;18.400;2023-06-14T01:03:01;7.63;;;3.72;;
74510;SDS011;62991;50.040;18.400;2023-06-14T01:06:05;8.20;;;4.05;;
74510;SDS011;62991;50.040;18.400;2023-06-14T01:13:11;10.82;;;4.15;;
74510;SDS011;62991;50.040;18.400;2023-06-14T01:16:13;10.57;;;5.30;;
74510;SDS011;62991;50.040;18.400;2023-06-14T01:19:23;13.07;;;5.30;;
74510;SDS011;62991;50.040;18.400;2023-06-14T01:22:26;9.05;;;4.60;;
74510;SDS011;62991;50.040;18.400;2023-06-14T01:25:27;9.75;;;4.63;;
74510;SDS011;62991;50.040;18.400;2023-06-14T01:28:28;13.15;;;5.18;;
74510;SDS011;62991;50.040;18.400;2023-06-14T01:31:33;13.35;;;5.20;;
74510;SDS011;62991;50.040;18.400;2023-06-14T01:34:41;13.02;;;5.07;;
74510;SDS011;62991;50.040;18.400;2023-06-14T01:37:42;10.98;;;4.88;;
74510;SDS011;62991;50.040;18.400;2023-06-14T01:40:47;12.85;;;5.40;;
74510;SDS011;62991;50.040;18.400;2023-06-14T01:43:50;14.23;;;5.30;;
74510;SDS011;62991;50.040;18.400;2023-06-14T01:46:52;13.13;;;5.20;;
74510;SDS011;62991;50.040;18.400;2023-06-14T01:49:54;12.50;;;5.47;;
74510;SDS011;62991;50.040;18.400;2023-06-14T01:52:54;14.20;;;6.25;;
74510;SDS011;62991;50.040;18.400;2023-06-14T01:55:55;10.80;;;5.28;;
74510;SDS011;62991;50.040;18.400;2023-06-14T01:58:56;13.48;;;5.90;;
74510;SDS011;62991;50.040;18.400;2023-06-14T02:01:57;14.40;;;5.78;;
74510;SDS011;62991;50.040;18.400;2023-06-14T02:04:57;13.85;;;5.40;;
74510;SDS011;62991;50.040;18.400;2023-06-14T02:07:58;13.27;;;5.72;;
74510;SDS011;62991;50.040;18.400;2023-06-14T02:10:59;15.63;;;5.32;;
74510;SDS011;62991;50.040;18.400;2023-06-14T02:13:59;12.95;;;5.82;;
74510;SDS011;62991;50.040;18.400;2023-06-14T02:17:01;11.57;;;5.28;;
74510;SDS011;62991;50.040;18.400;2023-06-14T02:20:02;12.68;;;5.40;;
74510;SDS011;62991;50.040;18.400;2023-06-14T02:23:04;12.50;;;5.63;;
74510;SDS011;62991;50.040;18.400;2023-06-14T02:26:08;14.55;;;5.78;;
74510;SDS011;62991;50.040;18.400;2023-06-14T02:29:08;13.30;;;5.18;;
74510;SDS011;62991;50.040;18.400;2023-06-14T02:32:12;13.40;;;5.68;;
74510;SDS011;62991;50.040;18.400;2023-06-14T02:35:12;14.18;;;5.72;;
74510;SDS011;62991;50.040;18.400;2023-06-14T02:38:13;15.73;;;6.40;;
74510;SDS011;62991;50.040;18.400;2023-06-14T02:41:14;14.90;;;5.90;;
74510;SDS011;62991;50.040;18.400;2023-06-14T02:44:15;13.90;;;5.15;;
74510;SDS011;62991;50.040;18.400;2023-06-14T02:47:17;14.57;;;6.88;;
74510;SDS011;62991;50.040;18.400;2023-06-14T02:50:18;18.75;;;6.82;;
74510;SDS011;62991;50.040;18.400;2023-06-14T02:53:21;14.55;;;6.10;;
74510;SDS011;62991;50.040;18.400;2023-06-14T02:56:22;12.82;;;5.28;;
74510;SDS011;62991;50.040;18.400;2023-06-14T02:59:23;17.25;;;6.53;;
74510;SDS011;62991;50.040;18.400;2023-06-14T03:02:25;14.00;;;6.25;;
74510;SDS011;62991;50.040;18.400;2023-06-14T03:08:49;17.20;;;8.05;;
74510;SDS011;62991;50.040;18.400;2023-06-14T03:12:07;18.83;;;7.30;;
74510;SDS011;62991;50.040;18.400;2023-06-14T03:15:09;16.30;;;6.65;;
74510;SDS011;62991;50.040;18.400;2023-06-14T03:18:11;15.55;;;5.88;;
74510;SDS011;62991;50.040;18.400;2023-06-14T03:21:15;14.07;;;6.03;;
74510;SDS011;62991;50.040;18.400;2023-06-14T03:24:16;14.20;;;6.35;;
74510;SDS011;62991;50.040;18.400;2023-06-14T03:27:17;14.93;;;6.32;;
74510;SDS011;62991;50.040;18.400;2023-06-14T03:30:18;20.88;;;6.53;;
74510;SDS011;62991;50.040;18.400;2023-06-14T03:33:19;15.60;;;6.47;;
74510;SDS011;62991;50.040;18.400;2023-06-14T03:36:20;15.15;;;6.32;;
74510;SDS011;62991;50.040;18.400;2023-06-14T03:39:21;14.82;;;6.63;;
74510;SDS011;62991;50.040;18.400;2023-06-14T03:42:22;14.63;;;6.18;;
74510;SDS011;62991;50.040;18.400;2023-06-14T03:45:23;12.15;;;6.03;;
74510;SDS011;62991;50.040;18.400;2023-06-14T03:48:24;13.35;;;6.75;;
74510;SDS011;62991;50.040;18.400;2023-06-14T03:51:24;17.38;;;6.55;;
74510;SDS011;62991;50.040;18.400;2023-06-14T03:54:25;13.57;;;6.05;;
74510;SDS011;62991;50.040;18.400;2023-06-14T03:57:27;13.38;;;6.30;;
74510;SDS011;62991;50.040;18.400;2023-06-14T04:00:38;15.77;;;5.90;;
74510;SDS011;62991;50.040;18.400;2023-06-14T04:03:40;15.90;;;6.65;;
74510;SDS011;62991;50.040;18.400;2023-06-14T04:06:41;14.68;;;6.57;;
74510;SDS011;62991;50.040;18.400;2023-06-14T04:09:55;16.65;;;7.07;;
74510;SDS011;62991;50.040;18.400;2023-06-14T04:12:55;12.85;;;5.53;;
74510;SDS011;62991;50.040;18.400;2023-06-14T04:15:56;12.60;;;5.85;;
74510;SDS011;62991;50.040;18.400;2023-06-14T04:18:57;14.23;;;5.88;;
74510;SDS011;62991;50.040;18.400;2023-06-14T04:21:58;10.98;;;6.43;;
74510;SDS011;62991;50.040;18.400;2023-06-14T04:25:01;13.50;;;6.03;;
74510;SDS011;62991;50.040;18.400;2023-06-14T04:28:02;12.68;;;5.95;;
74510;SDS011;62991;50.040;18.400;2023-06-14T04:31:03;13.55;;;5.53;;
74510;SDS011;62991;50.040;18.400;2023-06-14T04:34:08;16.17;;;7.03;;
74510;SDS011;62991;50.040;18.400;2023-06-14T04:37:09;14.30;;;6.22;;
74510;SDS011;62991;50.040;18.400;2023-06-14T04:40:09;15.80;;;6.65;;
74510;SDS011;62991;50.040;18.400;2023-06-14T04:43:11;14.75;;;6.32;;
74510;SDS011;62991;50.040;18.400;2023-06-14T04:46:17;11.60;;;5.80;;
74510;SDS011;62991;50.040;18.400;2023-06-14T04:49:19;14.75;;;6.38;;
74510;SDS011;62991;50.040;18.400;2023-06-14T04:52:19;16.58;;;6.95;;
74510;SDS011;62991;50.040;18.400;2023-06-14T04:55:21;15.52;;;6.20;;
74510;SDS011;62991;50.040;18.400;2023-06-14T04:58:21;15.68;;;5.80;;
74510;SDS011;62991;50.040;18.400;2023-06-14T05:01:22;14.30;;;5.88;;
74510;SDS011;62991;50.040;18.400;2023-06-14T05:04:23;15.30;;;6.05;;
74510;SDS011;62991;50.040;18.400;2023-06-14T05:07:33;14.90;;;6.72;;
74510;SDS011;62991;50.040;18.400;2023-06-14T05:10:33;13.98;;;6.13;;
74510;SDS011;62991;50.040;18.400;2023-06-14T05:13:36;15.43;;;5.72;;
74510;SDS011;62991;50.040;18.400;2023-06-14T05:16:36;17.17;;;6.32;;
74510;SDS011;62991;50.040;18.400;2023-06-14T05:19:37;16.17;;;6.68;;
74510;SDS011;62991;50.040;18.400;2023-06-14T05:22:38;16.63;;;7.57;;
74510;SDS011;62991;50.040;18.400;2023-06-14T05:25:38;13.52;;;6.07;;
74510;SDS011;62991;50.040;18.400;2023-06-14T05:28:39;15.80;;;6.93;;
74510;SDS011;62991;50.040;18.400;2023-06-14T05:31:40;15.10;;;6.88;;
74510;SDS011;62991;50.040;18.400;2023-06-14T05:34:40;14.48;;;6.55;;
74510;SDS011;62991;50.040;18.400;2023-06-14T05:37:41;15.32;;;5.75;;
74510;SDS011;62991;50.040;18.400;2023-06-14T05:40:42;15.30;;;6.75;;
74510;SDS011;62991;50.040;18.400;2023-06-14T05:43:42;16.83;;;8.18;;
74510;SDS011;62991;50.040;18.400;2023-06-14T05:46:43;13.27;;;6.72;;
74510;SDS011;62991;50.040;18.400;2023-06-14T05:49:44;16.52;;;6.63;;
74510;SDS011;62991;50.040;18.400;2023-06-14T05:52:44;16.10;;;6.10;;
74510;SDS011;62991;50.040;18.400;2023-06-14T05:55:45;16.00;;;7.20;;
74510;SDS011;62991;50.040;18.400;2023-06-14T05:58:46;15.27;;;6.35;;
74510;SDS011;62991;50.040;18.400;2023-06-14T06:02:03;18.70;;;7.50;;
74510;SDS011;62991;50.040;18.400;2023-06-14T06:05:05;23.92;;;8.52;;
74510;SDS011;62991;50.040;18.400;2023-06-14T06:08:06;21.65;;;8.63;;
74510;SDS011;62991;50.040;18.400;2023-06-14T06:11:06;19.27;;;8.43;;
74510;SDS011;62991;50.040;18.400;2023-06-14T06:14:07;20.73;;;8.70;;
74510;SDS011;62991;50.040;18.400;2023-06-14T06:17:08;20.10;;;7.38;;
74510;SDS011;62991;50.040;18.400;2023-06-14T06:20:09;25.08;;;9.75;;
74510;SDS011;62991;50.040;18.400;2023-06-14T06:23:11;22.02;;;9.02;;
74510;SDS011;62991;50.040;18.400;2023-06-14T06:26:12;18.75;;;7.90;;
74510;SDS011;62991;50.040;18.400;2023-06-14T06:29:13;21.63;;;9.13;;
74510;SDS011;62991;50.040;18.400;2023-06-14T06:32:14;23.75;;;9.85;;
74510;SDS011;62991;50.040;18.400;2023-06-14T06:35:15;16.67;;;7.60;;
74510;SDS011;62991;50.040;18.400;2023-06-14T06:38:16;16.75;;;8.13;;
74510;SDS011;62991;50.040;18.400;2023-06-14T06:41:18;16.60;;;7.63;;
74510;SDS011;62991;50.040;18.400;2023-06-14T06:44:19;14.90;;;7.80;;
74510;SDS011;62991;50.040;18.400;2023-06-14T06:47:20;14.90;;;7.50;;
74510;SDS011;62991;50.040;18.400;2023-06-14T06:50:20;16.48;;;7.13;;
74510;SDS011;62991;50.040;18.400;2023-06-14T06:53:23;14.25;;;6.35;;
74510;SDS011;62991;50.040;18.400;2023-06-14T06:56:23;18.83;;;7.32;;
74510;SDS011;62991;50.040;18.400;2023-06-14T06:59:24;15.65;;;6.75;;
74510;SDS011;62991;50.040;18.400;2023-06-14T07:02:25;12.85;;;5.28;;
74510;SDS011;62991;50.040;18.400;2023-06-14T07:05:26;15.40;;;7.05;;
74510;SDS011;62991;50.040;18.400;2023-06-14T07:08:26;13.77;;;6.13;;
74510;SDS011;62991;50.040;18.400;2023-06-14T07:11:33;13.13;;;6.00;;
74510;SDS011;62991;50.040;18.400;2023-06-14T07:14:34;15.85;;;6.53;;
74510;SDS011;62991;50.040;18.400;2023-06-14T07:17:35;18.95;;;7.55;;
74510;SDS011;62991;50.040;18.400;2023-06-14T07:20:37;16.27;;;6.80;;
74510;SDS011;62991;50.040;18.400;2023-06-14T07:23:38;14.60;;;6.38;;
74510;SDS011;62991;50.040;18.400;2023-06-14T07:26:39;14.13;;;5.72;;
74510;SDS011;62991;50.040;18.400;2023-06-14T07:29:39;16.20;;;6.47;;
74510;SDS011;62991;50.040;18.400;2023-06-14T07:32:40;20.90;;;6.30;;
74510;SDS011;62991;50.040;18.400;2023-06-14T07:35:42;15.48;;;6.60;;
74510;SDS011;62991;50.040;18.400;2023-06-14T07:38:43;18.30;;;6.22;;
74510;SDS011;62991;50.040;18.400;2023-06-14T07:41:44;15.30;;;6.60;;
74510;SDS011;62991;50.040;18.400;2023-06-14T07:44:44;18.10;;;6.38;;
74510;SDS011;62991;50.040;18.400;2023-06-14T07:47:45;16.73;;;6.40;;
74510;SDS011;62991;50.040;18.400;2023-06-14T07:50:46;12.10;;;5.88;;
74510;SDS011;62991;50.040;18.400;2023-06-14T07:53:47;16.45;;;5.55;;
74510;SDS011;62991;50.040;18.400;2023-06-14T07:56:48;14.20;;;6.80;;
74510;SDS011;62991;50.040;18.400;2023-06-14T07:59:50;15.38;;;6.15;;
74510;SDS011;62991;50.040;18.400;2023-06-14T08:02:51;17.05;;;6.25;;
74510;SDS011;62991;50.040;18.400;2023-06-14T08:05:58;15.20;;;6.35;;
74510;SDS011;62991;50.040;18.400;2023-06-14T08:09:00;18.20;;;5.90;;
74510;SDS011;62991;50.040;18.400;2023-06-14T08:12:01;13.18;;;6.15;;
74510;SDS011;62991;50.040;18.400;2023-06-14T08:15:01;13.80;;;5.40;;
74510;SDS011;62991;50.040;18.400;2023-06-14T08:18:19;24.85;;;7.85;;
74510;SDS011;62991;50.040;18.400;2023-06-14T08:21:19;13.88;;;5.25;;
74510;SDS011;62991;50.040;18.400;2023-06-14T08:24:23;15.30;;;5.78;;
74510;SDS011;62991;50.040;18.400;2023-06-14T08:27:27;16.80;;;5.85;;
74510;SDS011;62991;50.040;18.400;2023-06-14T08:33:51;10.07;;;4.50;;
74510;SDS011;62991;50.040;18.400;2023-06-14T08:36:51;13.15;;;5.55;;
74510;SDS011;62991;50.040;18.400;2023-06-14T08:39:52;13.35;;;5.82;;
74510;SDS011;62991;50.040;18.400;2023-06-14T08:42:53;9.75;;;4.68;;
74510;SDS011;62991;50.040;18.400;2023-06-14T08:45:57;16.02;;;5.75;;
74510;SDS011;62991;50.040;18.400;2023-06-14T08:49:00;15.88;;;7.63;;
74510;SDS011;62991;50.040;18.400;2023-06-14T08:52:04;11.70;;;5.75;;
74510;SDS011;62991;50.040;18.400;2023-06-14T08:55:08;15.25;;;5.72;;
74510;SDS011;62991;50.040;18.400;2023-06-14T08:58:09;13.13;;;5.05;;
74510;SDS011;62991;50.040;18.400;2023-06-14T09:01:14;10.95;;;5.28;;
74510;SDS011;62991;50.040;18.400;2023-06-14T09:04:16;13.05;;;5.05;;
74510;SDS011;62991;50.040;18.400;2023-06-14T09:07:17;10.05;;;4.32;;
74510;SDS011;62991;50.040;18.400;2023-06-14T09:10:18;10.85;;;4.63;;
74510;SDS011;62991;50.040;18.400;2023-06-14T09:13:20;11.23;;;4.70;;
74510;SDS011;62991;50.040;18.400;2023-06-14T09:16:21;10.45;;;4.68;;
74510;SDS011;62991;50.040;18.400;2023-06-14T09:19:25;13.43;;;4.13;;
74510;SDS011;62991;50.040;18.400;2023-06-14T09:22:28;8.73;;;4.05;;
74510;SDS011;62991;50.040;18.400;2023-06-14T09:25:30;7.72;;;4.13;;
74510;SDS011;62991;50.040;18.400;2023-06-14T09:28:31;8.82;;;4.15;;
74510;SDS011;62991;50.040;18.400;2023-06-14T09:31:32;9.35;;;4.30;;
74510;SDS011;62991;50.040;18.400;2023-06-14T09:34:33;10.57;;;4.55;;
74510;SDS011;62991;50.040;18.400;2023-06-14T09:37:35;8.88;;;4.38;;
74510;SDS011;62991;50.040;18.400;2023-06-14T09:40:38;9.52;;;4.18;;
74510;SDS011;62991;50.040;18.400;2023-06-14T09:43:38;13.73;;;5.40;;
74510;SDS011;62991;50.040;18.400;2023-06-14T09:46:40;9.02;;;4.32;;
74510;SDS011;62991;50.040;18.400;2023-06-14T09:49:41;11.25;;;4.93;;
74510;SDS011;62991;50.040;18.400;2023-06-14T09:52:45;15.13;;;6.45;;
74510;SDS011;62991;50.040;18.400;2023-06-14T09:55:50;12.93;;;5.60;;
74510;SDS011;62991;50.040;18.400;2023-06-14T09:58:58;15.85;;;7.30;;
74510;SDS011;62991;50.040;18.400;2023-06-14T10:01:59;14.52;;;6.25;;
74510;SDS011;62991;50.040;18.400;2023-06-14T10:05:11;19.75;;;7.93;;
74510;SDS011;62991;50.040;18.400;2023-06-14T10:08:15;15.23;;;7.25;;
74510;SDS011;62991;50.040;18.400;2023-06-14T10:11:19;17.15;;;7.45;;
74510;SDS011;62991;50.040;18.400;2023-06-14T10:14:20;19.25;;;7.70;;
74510;SDS011;62991;50.040;18.400;2023-06-14T10:17:23;17.83;;;7.55;;
74510;SDS011;62991;50.040;18.400;2023-06-14T10:20:37;20.33;;;6.82;;
74510;SDS011;62991;50.040;18.400;2023-06-14T10:23:44;19.23;;;7.38;;
74510;SDS011;62991;50.040;18.400;2023-06-14T10:26:53;17.42;;;6.80;;
74510;SDS011;62991;50.040;18.400;2023-06-14T10:33:07;17.98;;;7.22;;
74510;SDS011;62991;50.040;18.400;2023-06-14T10:36:10;13.57;;;6.10;;
74510;SDS011;62991;50.040;18.400;2023-06-14T10:39:27;21.67;;;6.75;;
74510;SDS011;62991;50.040;18.400;2023-06-14T10:42:31;13.88;;;6.43;;
74510;SDS011;62991;50.040;18.400;2023-06-14T10:45:32;14.07;;;7.07;;
74510;SDS011;62991;50.040;18.400;2023-06-14T10:48:33;13.77;;;7.00;;
74510;SDS011;62991;50.040;18.400;2023-06-14T10:51:41;17.08;;;7.00;;
74510;SDS011;62991;50.040;18.400;2023-06-14T10:58:18;15.55;;;6.20;;
74510;SDS011;62991;50.040;18.400;2023-06-14T11:01:38;14.55;;;7.10;;
74510;SDS011;62991;50.040;18.400;2023-06-14T11:04:48;12.40;;;5.72;;
74510;SDS011;62991;50.040;18.400;2023-06-14T11:11:08;20.20;;;7.65;;
74510;SDS011;62991;50.040;18.400;2023-06-14T11:14:12;13.73;;;6.38;;
74510;SDS011;62991;50.040;18.400;2023-06-14T11:17:12;20.73;;;6.93;;
74510;SDS011;62991;50.040;18.400;2023-06-14T11:20:13;12.88;;;5.53;;
74510;SDS011;62991;50.040;18.400;2023-06-14T11:23:16;11.82;;;5.30;;
74510;SDS011;62991;50.040;18.400;2023-06-14T11:26:24;12.50;;;5.50;;
74510;SDS011;62991;50.040;18.400;2023-06-14T11:29:33;15.32;;;6.15;;
74510;SDS011;62991;50.040;18.400;2023-06-14T11:32:34;13.43;;;5.80;;
74510;SDS011;62991;50.040;18.400;2023-06-14T11:35:34;10.35;;;5.55;;
74510;SDS011;62991;50.040;18.400;2023-06-14T11:38:36;14.60;;;6.47;;
74510;SDS011;62991;50.040;18.400;2023-06-14T11:41:38;17.42;;;7.75;;
74510;SDS011;62991;50.040;18.400;2023-06-14T11:44:40;17.73;;;6.88;;
74510;SDS011;62991;50.040;18.400;2023-06-14T11:47:41;13.50;;;6.35;;
74510;SDS011;62991;50.040;18.400;2023-06-14T11:50:42;14.55;;;5.93;;
74510;SDS011;62991;50.040;18.400;2023-06-14T11:53:43;14.35;;;6.03;;
74510;SDS011;62991;50.040;18.400;2023-06-14T11:56:44;13.73;;;6.40;;
74510;SDS011;62991;50.040;18.400;2023-06-14T11:59:44;14.63;;;6.47;;
74510;SDS011;62991;50.040;18.400;2023-06-14T12:02:53;14.45;;;6.50;;
74510;SDS011;62991;50.040;18.400;2023-06-14T12:06:04;14.35;;;5.90;;
74510;SDS011;62991;50.040;18.400;2023-06-14T12:09:07;11.02;;;5.25;;
74510;SDS011;62991;50.040;18.400;2023-06-14T12:12:17;9.95;;;4.95;;
74510;SDS011;62991;50.040;18.400;2023-06-14T12:15:17;8.90;;;5.00;;
74510;SDS011;62991;50.040;18.400;2023-06-14T12:18:18;6.80;;;3.53;;
74510;SDS011;62991;50.040;18.400;2023-06-14T12:21:22;4.50;;;2.63;;
74510;SDS011;62991;50.040;18.400;2023-06-14T12:24:23;6.68;;;3.35;;
74510;SDS011;62991;50.040;18.400;2023-06-14T12:27:29;6.38;;;3.33;;
74510;SDS011;62991;50.040;18.400;2023-06-14T12:30:30;5.47;;;2.90;;
74510;SDS011;62991;50.040;18.400;2023-06-14T12:33:30;5.25;;;2.83;;
74510;SDS011;62991;50.040;18.400;2023-06-14T12:36:31;4.90;;;2.92;;
74510;SDS011;62991;50.040;18.400;2023-06-14T12:39:32;4.47;;;2.92;;
74510;SDS011;62991;50.040;18.400;2023-06-14T12:42:33;6.43;;;2.95;;
74510;SDS011;62991;50.040;18.400;2023-06-14T12:45:33;6.38;;;3.17;;
74510;SDS011;62991;50.040;18.400;2023-06-14T12:48:34;5.47;;;2.88;;
74510;SDS011;62991;50.040;18.400;2023-06-14T12:51:35;5.47;;;2.63;;
74510;SDS011;62991;50.040;18.400;2023-06-14T12:54:35;7.43;;;3.40;;
74510;SDS011;62991;50.040;18.400;2023-06-14T12:57:36;5.10;;;3.10;;
74510;SDS011;62991;50.040;18.400;2023-06-14T13:00:38;4.55;;;2.38;;
74510;SDS011;62991;50.040;18.400;2023-06-14T13:03:38;5.28;;;2.88;;
74510;SDS011;62991;50.040;18.400;2023-06-14T13:06:39;5.32;;;3.03;;
74510;SDS011;62991;50.040;18.400;2023-06-14T13:09:40;4.88;;;3.17;;
74510;SDS011;62991;50.040;18.400;2023-06-14T13:12:41;4.82;;;2.90;;
74510;SDS011;62991;50.040;18.400;2023-06-14T13:15:42;6.00;;;3.55;;
74510;SDS011;62991;50.040;18.400;2023-06-14T13:18:43;4.78;;;3.25;;
74510;SDS011;62991;50.040;18.400;2023-06-14T13:21:44;5.95;;;3.63;;
74510;SDS011;62991;50.040;18.400;2023-06-14T13:24:44;6.38;;;3.10;;
74510;SDS011;62991;50.040;18.400;2023-06-14T13:27:45;4.15;;;2.80;;
74510;SDS011;62991;50.040;18.400;2023-06-14T13:30:46;5.82;;;2.80;;
74510;SDS011;62991;50.040;18.400;2023-06-14T13:33:47;7.38;;;3.25;;
74510;SDS011;62991;50.040;18.400;2023-06-14T13:36:48;5.90;;;3.45;;
74510;SDS011;62991;50.040;18.400;2023-06-14T13:39:49;5.15;;;3.10;;
74510;SDS011;62991;50.040;18.400;2023-06-14T13:42:50;6.93;;;3.13;;
74510;SDS011;62991;50.040;18.400;2023-06-14T13:45:51;5.65;;;3.20;;
74510;SDS011;62991;50.040;18.400;2023-06-14T13:48:52;4.13;;;2.58;;
74510;SDS011;62991;50.040;18.400;2023-06-14T13:51:52;5.35;;;3.05;;
74510;SDS011;62991;50.040;18.400;2023-06-14T13:54:53;7.68;;;2.80;;
74510;SDS011;62991;50.040;18.400;2023-06-14T13:57:54;5.05;;;3.13;;
74510;SDS011;62991;50.040;18.400;2023-06-14T14:00:54;5.18;;;2.65;;
74510;SDS011;62991;50.040;18.400;2023-06-14T14:03:55;7.05;;;2.88;;
74510;SDS011;62991;50.040;18.400;2023-06-14T14:06:56;4.95;;;3.08;;
74510;SDS011;62991;50.040;18.400;2023-06-14T14:09:57;4.93;;;2.92;;
74510;SDS011;62991;50.040;18.400;2023-06-14T14:12:57;4.28;;;2.75;;
74510;SDS011;62991;50.040;18.400;2023-06-14T14:15:58;4.78;;;2.85;;
74510;SDS011;62991;50.040;18.400;2023-06-14T14:18:59;5.75;;;3.38;;
74510;SDS011;62991;50.040;18.400;2023-06-14T14:22:01;5.75;;;3.05;;
74510;SDS011;62991;50.040;18.400;2023-06-14T14:25:02;4.63;;;2.60;;
74510;SDS011;62991;50.040;18.400;2023-06-14T14:28:02;4.72;;;2.72;;
74510;SDS011;62991;50.040;18.400;2023-06-14T14:31:03;4.45;;;2.60;;
74510;SDS011;62991;50.040;18.400;2023-06-14T14:34:04;4.20;;;2.72;;
74510;SDS011;62991;50.040;18.400;2023-06-14T14:37:05;4.25;;;2.63;;
74510;SDS011;62991;50.040;18.400;2023-06-14T14:40:06;6.40;;;2.65;;
74510;SDS011;62991;50.040;18.400;2023-06-14T14:43:08;5.57;;;2.58;;
74510;SDS011;62991;50.040;18.400;2023-06-14T14:46:09;5.25;;;2.88;;
74510;SDS011;62991;50.040;18.400;2023-06-14T14:49:10;4.47;;;2.60;;
74510;SDS011;62991;50.040;18.400;2023-06-14T14:52:11;5.22;;;2.85;;
74510;SDS011;62991;50.040;18.400;2023-06-14T14:55:13;7.93;;;3.55;;
74510;SDS011;62991;50.040;18.400;2023-06-14T14:58:14;5.47;;;3.10;;
74510;SDS011;62991;50.040;18.400;2023-06-14T15:01:17;4.25;;;2.55;;
74510;SDS011;62991;50.040;18.400;2023-06-14T15:04:18;6.25;;;3.53;;
74510;SDS011;62991;50.040;18.400;2023-06-14T15:07:19;5.22;;;2.75;;
74510;SDS011;62991;50.040;18.400;2023-06-14T15:10:20;5.78;;;3.40;;
74510;SDS011;62991;50.040;18.400;2023-06-14T15:13:20;6.03;;;3.13;;
74510;SDS011;62991;50.040;18.400;2023-06-14T15:16:23;5.78;;;3.30;;
74510;SDS011;62991;50.040;18.400;2023-06-14T15:19:24;7.15;;;3.42;;
74510;SDS011;62991;50.040;18.400;2023-06-14T15:22:24;6.55;;;3.63;;
74510;SDS011;62991;50.040;18.400;2023-06-14T15:25:28;6.80;;;3.72;;
74510;SDS011;62991;50.040;18.400;2023-06-14T15:28:30;8.57;;;3.80;;
74510;SDS011;62991;50.040;18.400;2023-06-14T15:31:32;6.68;;;3.42;;
74510;SDS011;62991;50.040;18.400;2023-06-14T15:34:33;6.43;;;3.70;;
74510;SDS011;62991;50.040;18.400;2023-06-14T15:37:34;6.45;;;3.38;;
74510;SDS011;62991;50.040;18.400;2023-06-14T15:40:34;5.40;;;2.78;;
74510;SDS011;62991;50.040;18.400;2023-06-14T15:43:35;5.50;;;3.00;;
74510;SDS011;62991;50.040;18.400;2023-06-14T15:46:36;5.60;;;3.47;;
74510;SDS011;62991;50.040;18.400;2023-06-14T15:49:36;4.93;;;2.78;;
74510;SDS011;62991;50.040;18.400;2023-06-14T15:52:37;6.05;;;2.45;;
74510;SDS011;62991;50.040;18.400;2023-06-14T15:55:38;6.65;;;2.95;;
74510;SDS011;62991;50.040;18.400;2023-06-14T15:58:39;6.00;;;3.20;;
74510;SDS011;62991;50.040;18.400;2023-06-14T16:01:39;4.25;;;2.65;;
74510;SDS011;62991;50.040;18.400;2023-06-14T16:04:40;4.55;;;2.72;;
74510;SDS011;62991;50.040;18.400;2023-06-14T16:07:41;4.70;;;2.80;;
74510;SDS011;62991;50.040;18.400;2023-06-14T16:10:41;7.43;;;2.50;;
74510;SDS011;62991;50.040;18.400;2023-06-14T16:13:42;4.63;;;2.50;;
74510;SDS011;62991;50.040;18.400;2023-06-14T16:16:43;3.78;;;2.20;;
74510;SDS011;62991;50.040;18.400;2023-06-14T16:19:43;4.50;;;2.65;;
74510;SDS011;62991;50.040;18.400;2023-06-14T16:22:44;5.13;;;2.58;;
74510;SDS011;62991;50.040;18.400;2023-06-14T16:25:45;4.45;;;2.53;;
74510;SDS011;62991;50.040;18.400;2023-06-14T16:28:45;5.30;;;2.97;;
74510;SDS011;62991;50.040;18.400;2023-06-14T16:31:46;6.30;;;2.50;;
74510;SDS011;62991;50.040;18.400;2023-06-14T16:34:47;4.10;;;2.50;;
74510;SDS011;62991;50.040;18.400;2023-06-14T16:37:47;6.45;;;3.50;;
74510;SDS011;62991;50.040;18.400;2023-06-14T16:40:48;6.22;;;3.55;;
74510;SDS011;62991;50.040;18.400;2023-06-14T16:43:49;6.68;;;3.40;;
74510;SDS011;62991;50.040;18.400;2023-06-14T16:46:49;6.95;;;3.55;;
74510;SDS011;62991;50.040;18.400;2023-06-14T16:49:50;6.57;;;3.60;;
74510;SDS011;62991;50.040;18.400;2023-06-14T16:52:51;6.60;;;3.33;;
74510;SDS011;62991;50.040;18.400;2023-06-14T16:55:51;6.60;;;3.53;;
74510;SDS011;62991;50.040;18.400;2023-06-14T16:58:52;9.05;;;3.42;;
74510;SDS011;62991;50.040;18.400;2023-06-14T17:01:58;6.75;;;3.53;;
74510;SDS011;62991;50.040;18.400;2023-06-14T17:05:02;5.65;;;2.97;;
74510;SDS011;62991;50.040;18.400;2023-06-14T17:08:02;6.75;;;3.17;;
74510;SDS011;62991;50.040;18.400;2023-06-14T17:11:03;5.90;;;3.30;;
74510;SDS011;62991;50.040;18.400;2023-06-14T17:14:04;5.53;;;2.80;;
74510;SDS011;62991;50.040;18.400;2023-06-14T17:17:06;6.63;;;3.30;;
74510;SDS011;62991;50.040;18.400;2023-06-14T17:20:07;6.90;;;3.42;;
74510;SDS011;62991;50.040;18.400;2023-06-14T17:23:09;4.60;;;2.60;;
74510;SDS011;62991;50.040;18.400;2023-06-14T17:26:09;4.82;;;2.55;;
74510;SDS011;62991;50.040;18.400;2023-06-14T17:29:10;4.60;;;2.13;;
74510;SDS011;62991;50.040;18.400;2023-06-14T17:32:11;4.43;;;2.33;;
74510;SDS011;62991;50.040;18.400;2023-06-14T17:35:12;5.45;;;2.25;;
74510;SDS011;62991;50.040;18.400;2023-06-14T17:38:14;4.60;;;2.28;;
74510;SDS011;62991;50.040;18.400;2023-06-14T17:41:18;6.32;;;2.95;;
74510;SDS011;62991;50.040;18.400;2023-06-14T17:44:19;5.72;;;2.40;;
74510;SDS011;62991;50.040;18.400;2023-06-14T17:47:19;5.55;;;2.13;;
74510;SDS011;62991;50.040;18.400;2023-06-14T17:50:20;5.88;;;2.53;;
74510;SDS011;62991;50.040;18.400;2023-06-14T17:53:21;5.18;;;2.10;;
74510;SDS011;62991;50.040;18.400;2023-06-14T17:56:22;4.95;;;2.60;;
74510;SDS011;62991;50.040;18.400;2023-06-14T17:59:23;4.10;;;2.20;;
74510;SDS011;62991;50.040;18.400;2023-06-14T18:02:23;4.40;;;2.35;;
74510;SDS011;62991;50.040;18.400;2023-06-14T18:05:24;5.57;;;2.50;;
74510;SDS011;62991;50.040;18.400;2023-06-14T18:08:29;7.82;;;3.58;;
74510;SDS011;62991;50.040;18.400;2023-06-14T18:11:30;4.90;;;2.42;;
74510;SDS011;62991;50.040;18.400;2023-06-14T18:14:32;6.50;;;3.15;;